Time;durP1;ratioP1;P1;durP2;ratioP2;P2;SDS_P1;SDS_P2;PMS_P1;PMS_P2;Temp;Humidity;BMP_temperature;BMP_pressure;BME280_temperature;BME280_humidity;BME280_pressure;Samples;Min_cycle;Max_cycle;Signal;HPM_P1;HPM_P2
2024/03/24 00:01:05;;;;;;;;;;;;;;;2.67;100.00;95811.38;5070880;28;19939;-89
2024/03/24 00:03:31;;;;;;;;;;;;;;;2.67;100.00;95806.19;5088001;28;19938;-89
2024/03/24 00:05:57;;;;;;;;;;;;;;;2.67;100.00;95808.78;5088521;28;19946;-92
2024/03/24 00:08:23;;;;;;;;;;;;;;;2.66;100.00;95807.16;5087552;28;19950;-74
2024/03/24 00:10:49;;;;;;;;;;;;;;;2.66;100.00;95798.59;5087351;28;20101;-77
2024/03/24 00:13:15;;;;;;;;;;;;;;;2.66;100.00;95801.19;5070132;28;19935;-72
2024/03/24 00:15:41;;;;;;;;;;;;;;;2.62;100.00;95803.31;5053418;28;19999;-72
2024/03/24 00:18:07;;;;;;;;;;;;;;;2.61;100.00;95810.31;5069488;28;19958;-72
2024/03/24 00:20:33;;;;;;;;;;;;;;;2.64;100.00;95802.16;5069393;28;20004;-73
2024/03/24 00:22:59;;;;;;;;;;;;;;;2.66;100.00;95808.94;5069805;28;19954;-72
2024/03/24 00:25:25;;;;;;;;;;;;;;;2.68;100.00;95815.53;5087104;28;20040;-72
2024/03/24 00:27:51;;;;;;;;;;;;;;;2.72;100.00;95805.63;5087820;28;20239;-71
2024/03/24 00:30:16;;;;;;;;;;;;;;;2.77;100.00;95803.28;5069985;28;19943;-74
2024/03/24 00:32:42;;;;;;;;;;;;;;;2.80;100.00;95795.94;5086948;28;20039;-75
2024/03/24 00:35:08;;;;;;;;;;;;;;;2.79;100.00;95799.53;5086953;28;19945;-74
2024/03/24 00:37:35;;;;;;;;;;;;;;;2.80;100.00;95792.56;5087622;28;19945;-76
2024/03/24 00:40:01;;;;;;;;;;;;;;;2.79;100.00;95789.19;5086821;28;19941;-74
2024/03/24 00:42:27;;;;;;;;;;;;;;;2.78;100.00;95777.22;5085806;28;19980;-73
2024/03/24 00:44:53;;;;;;;;;;;;;;;2.73;100.00;95778.75;5086698;28;19939;-75
2024/03/24 00:47:19;;;;;;;;;;;;;;;2.69;100.00;95782.69;5087468;28;20013;-75
2024/03/24 00:49:45;;;;;;;;;;;;;;;2.67;100.00;95779.47;5068849;28;19943;-72
2024/03/24 00:52:11;;;;;;;;;;;;;;;2.66;100.00;95777.88;5087094;28;19942;-70
2024/03/24 00:54:37;;;;;;;;;;;;;;;2.61;100.00;95768.88;5069152;28;19947;-71
2024/03/24 00:57:02;;;;;;;;;;;;;;;2.61;100.00;95771.47;5069011;28;19944;-71
2024/03/24 00:59:28;;;;;;;;;;;;;;;2.61;100.00;95768.88;5086925;28;19999;-72
2024/03/24 01:01:54;;;;;;;;;;;;;;;2.64;100.00;95762.53;5086349;28;19974;-72
2024/03/24 01:04:20;;;;;;;;;;;;;;;2.62;100.00;95759.31;5086382;28;19959;-73
2024/03/24 01:06:46;;;;;;;;;;;;;;;2.62;100.00;95754.16;5087149;28;19949;-74
2024/03/24 01:09:13;;;;;;;;;;;;;;;2.60;100.00;95751.75;5069025;28;19941;-73
2024/03/24 01:11:40;;;;;;;;;;;;;;;2.63;100.00;95753.97;5068416;28;19943;-73
2024/03/24 01:14:06;;;;;;;;;;;;;;;2.66;100.00;95754.59;5086188;28;19936;-73
2024/03/24 01:16:32;;;;;;;;;;;;;;;2.66;100.00;95757.97;5086930;28;20116;-74
2024/03/24 01:18:58;;;;;;;;;;;;;;;2.67;100.00;95749.22;5068224;28;20254;-74
2024/03/24 01:21:24;;;;;;;;;;;;;;;2.68;100.00;95750.81;5086013;28;19959;-74
2024/03/24 01:23:50;;;;;;;;;;;;;;;2.73;100.00;95745.09;5086073;28;19937;-74
2024/03/24 01:26:16;;;;;;;;;;;;;;;2.78;100.00;95748.72;5068972;28;19938;-71
2024/03/24 01:28:42;;;;;;;;;;;;;;;2.81;100.00;95740.59;5068844;28;19948;-72
2024/03/24 01:31:08;;;;;;;;;;;;;;;2.81;100.00;95747.53;5085924;28;19944;-72
2024/03/24 01:33:34;;;;;;;;;;;;;;;2.82;100.00;95746.56;5085787;28;19936;-72
2024/03/24 01:36:00;;;;;;;;;;;;;;;2.83;100.00;95746.41;5085787;28;19939;-71
2024/03/24 01:38:26;;;;;;;;;;;;;;;2.83;100.00;95748.97;5085744;28;19996;-73
2024/03/24 01:40:51;;;;;;;;;;;;;;;2.86;100.00;95740.03;5052101;28;19942;-90
2024/03/24 01:43:17;;;;;;;;;;;;;;;2.88;100.00;95732.88;5085654;28;20358;-72
2024/03/24 01:45:46;;;;;;;;;;;;;;;2.90;100.00;95737.84;5086105;28;19946;-69
2024/03/24 01:48:12;;;;;;;;;;;;;;;2.90;100.00;95736.09;5067611;28;19945;-69
2024/03/24 01:50:38;;;;;;;;;;;;;;;2.91;100.00;95729.13;5067584;28;19976;-69
2024/03/24 01:53:04;;;;;;;;;;;;;;;2.88;100.00;95727.72;5085436;28;19940;-69
2024/03/24 01:55:30;;;;;;;;;;;;;;;2.87;100.00;95723.50;5086191;28;19939;-69
2024/03/24 01:57:55;;;;;;;;;;;;;;;2.84;100.00;95729.06;5068398;28;19945;-69
2024/03/24 02:00:22;;;;;;;;;;;;;;;2.80;100.00;95722.66;5085306;28;20283;-81
2024/03/24 02:02:47;;;;;;;;;;;;;;;2.78;100.00;95716.88;5050685;28;19962;-70
2024/03/24 02:05:13;;;;;;;;;;;;;;;2.71;100.00;95727.16;5085258;28;19941;-71
2024/03/24 02:07:39;;;;;;;;;;;;;;;2.66;100.00;95726.13;5084492;28;19936;-71
2024/03/24 02:10:05;;;;;;;;;;;;;;;2.64;100.00;95726.28;5067781;28;20210;-71
2024/03/24 02:12:31;;;;;;;;;;;;;;;2.60;100.00;95727.66;5067351;28;19940;-71
2024/03/24 02:14:57;;;;;;;;;;;;;;;2.57;100.00;95734.00;5085086;28;19935;-71
2024/03/24 02:17:23;;;;;;;;;;;;;;;2.57;100.00;95735.78;5085024;28;19934;-76
2024/03/24 02:19:49;;;;;;;;;;;;;;;2.57;100.00;95739.19;5067419;28;20233;-69
2024/03/24 02:22:15;;;;;;;;;;;;;;;2.58;100.00;95733.03;5051263;28;19955;-87
2024/03/24 02:24:40;;;;;;;;;;;;;;;2.58;100.00;95729.63;5085400;28;19935;-82
2024/03/24 02:27:06;;;;;;;;;;;;;;;2.56;100.00;95716.06;5085575;28;20127;-87
2024/03/24 02:29:32;;;;;;;;;;;;;;;2.55;100.00;95712.69;5067718;28;19941;-91
2024/03/24 02:31:58;;;;;;;;;;;;;;;2.54;100.00;95718.03;5067457;28;19977;-86
2024/03/24 02:34:24;;;;;;;;;;;;;;;2.53;100.00;95706.09;5050665;28;19948;-90
2024/03/24 02:36:50;;;;;;;;;;;;;;;2.53;100.00;95701.72;5085342;28;19955;-75
2024/03/24 02:39:16;;;;;;;;;;;;;;;2.55;100.00;95706.72;5084557;28;19935;-69
2024/03/24 02:41:41;;;;;;;;;;;;;;;2.54;100.00;95711.09;5063692;28;20038;-68
2024/03/24 02:44:07;;;;;;;;;;;;;;;2.54;100.00;95713.69;5064040;28;20006;-69
2024/03/24 02:46:33;;;;;;;;;;;;;;;2.54;100.00;95708.50;5063940;28;19962;-69
2024/03/24 02:48:59;;;;;;;;;;;;;;;2.50;100.00;95714.22;5064411;28;20234;-69
2024/03/24 02:51:25;;;;;;;;;;;;;;;2.46;100.00;95716.38;5065147;28;20011;-69
2024/03/24 02:53:50;;;;;;;;;;;;;;;2.44;100.00;95695.88;5064249;28;19937;-87
2024/03/24 02:56:16;;;;;;;;;;;;;;;2.44;100.00;95702.84;5064648;28;19946;-72
2024/03/24 02:58:42;;;;;;;;;;;;;;;2.46;100.00;95694.88;5064240;28;20193;-70
2024/03/24 03:01:08;;;;;;;;;;;;;;;2.45;100.00;95688.91;5064716;28;19943;-70
2024/03/24 03:03:34;;;;;;;;;;;;;;;2.49;100.00;95686.75;5062816;28;19973;-70
2024/03/24 03:05:59;;;;;;;;;;;;;;;2.51;100.00;95682.19;5046257;28;19956;-69
2024/03/24 03:08:25;;;;;;;;;;;;;;;2.52;100.00;95682.00;5046229;28;19956;-70
2024/03/24 03:10:51;;;;;;;;;;;;;;;2.54;100.00;95669.69;5046156;28;19948;-69
2024/03/24 03:13:17;;;;;;;;;;;;;;;2.58;100.00;95670.91;5063600;28;19946;-83
2024/03/24 03:15:43;;;;;;;;;;;;;;;2.56;100.00;95667.72;5064458;28;19936;-69
2024/03/24 03:18:09;;;;;;;;;;;;;;;2.57;100.00;95671.88;5062851;28;19940;-69
2024/03/24 03:20:34;;;;;;;;;;;;;;;2.59;100.00;95666.53;5062319;28;19996;-70
2024/03/24 03:23:00;;;;;;;;;;;;;;;2.63;100.00;95675.53;5046728;28;19955;-69
2024/03/24 03:25:26;;;;;;;;;;;;;;;2.67;100.00;95669.00;5046788;28;19946;-70
2024/03/24 03:27:52;;;;;;;;;;;;;;;2.70;100.00;95676.38;5062550;28;19946;-70
2024/03/24 03:30:18;;;;;;;;;;;;;;;2.71;100.00;95662.44;5064329;28;19936;-70
2024/03/24 03:32:43;;;;;;;;;;;;;;;2.74;100.00;95659.47;5063720;28;20142;-74
2024/03/24 03:35:09;;;;;;;;;;;;;;;2.75;100.00;95650.72;5063782;28;20221;-76
2024/03/24 03:37:35;;;;;;;;;;;;;;;2.79;100.00;95645.94;5062941;28;20015;-76
2024/03/24 03:40:01;;;;;;;;;;;;;;;2.79;100.00;95653.72;5062644;28;19939;-76
2024/03/24 03:42:27;;;;;;;;;;;;;;;2.78;100.00;95657.31;5045561;28;19969;-76
2024/03/24 03:44:52;;;;;;;;;;;;;;;2.77;100.00;95647.94;5062625;28;19948;-76
2024/03/24 03:47:18;;;;;;;;;;;;;;;2.78;100.00;95649.53;5064401;28;19959;-74
2024/03/24 03:49:50;;;;;;;;;;;;;;;2.76;100.00;95647.13;5062548;28;19958;-69
2024/03/24 03:52:26;;;;;;;;;;;;;;;2.76;100.00;95644.56;5063276;28;19945;-68
2024/03/24 03:54:53;;;;;;;;;;;;;;;2.78;100.00;95652.94;5046568;28;19943;-68
2024/03/24 03:57:19;;;;;;;;;;;;;;;2.74;100.00;95648.31;5046498;28;19946;-69
2024/03/24 03:59:45;;;;;;;;;;;;;;;2.73;100.00;95652.72;5046428;28;19946;-69
2024/03/24 04:02:11;;;;;;;;;;;;;;;2.73;100.00;95654.47;5062986;28;20167;-69
2024/03/24 04:04:37;;;;;;;;;;;;;;;2.73;100.00;95654.47;5062358;28;19956;-70
2024/03/24 04:07:03;;;;;;;;;;;;;;;2.74;100.00;95661.25;5045655;28;20170;-69
2024/03/24 04:09:29;;;;;;;;;;;;;;;2.77;100.00;95663.47;5063447;28;19957;-70
2024/03/24 04:11:54;;;;;;;;;;;;;;;2.77;100.00;95661.69;5045606;28;19962;-73
2024/03/24 04:14:20;;;;;;;;;;;;;;;2.78;100.00;95654.72;5063983;28;19947;-72
2024/03/24 04:16:46;;;;;;;;;;;;;;;2.77;100.00;95661.69;5062203;28;19944;-73
2024/03/24 04:19:12;;;;;;;;;;;;;;;2.74;100.00;95664.66;5063605;28;19949;-73
2024/03/24 04:21:38;;;;;;;;;;;;;;;2.75;100.00;95674.03;5062133;28;19940;-73
2024/03/24 04:24:04;;;;;;;;;;;;;;;2.77;100.00;95669.47;5045460;28;19943;-72
2024/03/24 04:26:30;;;;;;;;;;;;;;;2.76;100.00;95673.03;5045587;28;19941;-84
2024/03/24 04:28:55;;;;;;;;;;;;;;;2.72;100.00;95678.78;5063062;28;19973;-74
2024/03/24 04:31:21;;;;;;;;;;;;;;;2.67;100.00;95676.75;5066129;28;20237;-73
2024/03/24 04:33:47;;;;;;;;;;;;;;;2.64;100.00;95690.06;5066917;28;20055;-73
2024/03/24 04:36:13;;;;;;;;;;;;;;;2.63;100.00;95685.88;5067715;28;19940;-73
2024/03/24 04:38:40;;;;;;;;;;;;;;;2.61;100.00;95686.06;5067357;28;19941;-72
2024/03/24 04:41:09;;;;;;;;;;;;;;;2.58;100.00;95691.63;5068188;28;19943;-73
2024/03/24 04:43:36;;;;;;;;;;;;;;;2.59;100.00;95695.00;5086743;28;20160;-74
2024/03/24 04:46:02;;;;;;;;;;;;;;;2.58;100.00;95690.78;5069904;28;19950;-71
2024/03/24 04:48:27;;;;;;;;;;;;;;;2.56;100.00;95688.41;5068863;28;19934;-69
2024/03/24 04:50:54;;;;;;;;;;;;;;;2.58;100.00;95677.84;5087196;28;19939;-69
2024/03/24 04:53:20;;;;;;;;;;;;;;;2.60;100.00;95683.66;5068651;28;19949;-69
2024/03/24 04:55:46;;;;;;;;;;;;;;;2.59;100.00;95685.44;5086576;28;19942;-69
2024/03/24 04:58:12;;;;;;;;;;;;;;;2.59;100.00;95687.22;5069803;28;19940;-69
2024/03/24 05:00:38;;;;;;;;;;;;;;;2.61;100.00;95686.06;5086759;28;19951;-69
2024/03/24 05:03:04;;;;;;;;;;;;;;;2.61;100.00;95693.03;5068546;28;20148;-85
2024/03/24 05:05:30;;;;;;;;;;;;;;;2.64;100.00;95695.22;5086563;28;19939;-72
2024/03/24 05:07:57;;;;;;;;;;;;;;;2.67;100.00;95697.47;5087167;28;19980;-68
2024/03/24 05:10:23;;;;;;;;;;;;;;;2.69;100.00;95702.44;5086333;28;20129;-68
2024/03/24 05:12:49;;;;;;;;;;;;;;;2.72;100.00;95707.25;5086830;28;19977;-68
2024/03/24 05:15:15;;;;;;;;;;;;;;;2.70;100.00;95697.06;5086275;28;19938;-68
2024/03/24 05:17:42;;;;;;;;;;;;;;;2.72;100.00;95704.66;5069221;28;19933;-69
2024/03/24 05:20:11;;;;;;;;;;;;;;;2.73;100.00;95707.06;5068928;28;19945;-69
2024/03/24 05:22:37;;;;;;;;;;;;;;;2.74;100.00;95706.06;5052176;28;20104;-84
2024/03/24 05:25:06;;;;;;;;;;;;;;;2.77;100.00;95692.78;5052526;28;19941;-69
2024/03/24 05:27:32;;;;;;;;;;;;;;;2.81;100.00;95698.34;5085946;28;19936;-70
2024/03/24 05:29:58;;;;;;;;;;;;;;;2.84;100.00;95690.22;5068798;28;19948;-69
2024/03/24 05:32:23;;;;;;;;;;;;;;;2.86;100.00;95696.03;5067969;28;19938;-69
2024/03/24 05:34:49;;;;;;;;;;;;;;;2.85;100.00;95695.19;5068680;28;19944;-69
2024/03/24 05:37:15;;;;;;;;;;;;;;;2.85;100.00;95695.19;5085830;28;19937;-69
2024/03/24 05:39:41;;;;;;;;;;;;;;;2.82;100.00;95699.97;5068263;28;19943;-75
2024/03/24 05:42:07;;;;;;;;;;;;;;;2.81;100.00;95704.34;5050341;28;20128;-93
2024/03/24 05:44:33;;;;;;;;;;;;;;;2.81;100.00;95700.94;5068453;28;20003;-75
2024/03/24 05:46:58;;;;;;;;;;;;;;;2.78;100.00;95702.13;5052011;28;19962;-75
2024/03/24 05:49:24;;;;;;;;;;;;;;;2.77;100.00;95712.66;5067867;28;20226;-77
2024/03/24 05:51:50;;;;;;;;;;;;;;;2.77;100.00;95718.66;5085572;28;20171;-76
2024/03/24 05:54:16;;;;;;;;;;;;;;;2.80;100.00;95723.44;5085553;28;19935;-77
2024/03/24 05:56:42;;;;;;;;;;;;;;;2.79;100.00;95721.88;5086011;28;19946;-74
2024/03/24 05:59:08;;;;;;;;;;;;;;;2.78;100.00;95725.44;5085731;28;19938;-77
2024/03/24 06:01:34;;;;;;;;;;;;;;;2.77;100.00;95730.78;5068159;28;19945;-74
2024/03/24 06:04:00;;;;;;;;;;;;;;;2.73;100.00;95721.78;5085300;28;19952;-73
2024/03/24 06:06:26;;;;;;;;;;;;;;;2.71;100.00;95726.34;5085821;28;19991;-75
2024/03/24 06:08:52;;;;;;;;;;;;;;;2.67;100.00;95723.34;5085253;28;20252;-73
2024/03/24 06:11:18;;;;;;;;;;;;;;;2.66;100.00;95723.53;5085996;28;19980;-74
2024/03/24 06:13:44;;;;;;;;;;;;;;;2.60;100.00;95725.06;5067931;28;19948;-74
2024/03/24 06:16:10;;;;;;;;;;;;;;;2.56;100.00;95726.41;5067495;28;19945;-73
2024/03/24 06:18:36;;;;;;;;;;;;;;;2.54;100.00;95733.56;5084988;28;19933;-74
2024/03/24 06:21:02;;;;;;;;;;;;;;;2.50;100.00;95725.38;5067224;28;20279;-85
2024/03/24 06:23:28;;;;;;;;;;;;;;;2.53;100.00;95730.19;5085123;28;20244;-84
2024/03/24 06:25:54;;;;;;;;;;;;;;;2.58;100.00;95732.22;5067218;28;19958;-85
2024/03/24 06:28:20;;;;;;;;;;;;;;;2.71;100.00;95731.53;5067275;28;19929;-85
2024/03/24 06:30:46;;;;;;;;;;;;;;;2.82;100.00;95736.22;5051193;28;19946;-80
2024/03/24 06:33:11;;;;;;;;;;;;;;;3.34;100.00;95729.81;5050578;28;19977;-84
2024/03/24 06:35:37;;;;;;;;;;;;;;;4.24;100.00;95719.44;5085552;28;20140;-74
2024/03/24 06:38:03;;;;;;;;;;;;;;;4.93;100.00;95705.34;5050335;28;20163;-76
2024/03/24 06:40:29;;;;;;;;;;;;;;;5.35;100.00;95681.69;5085005;28;19958;-75
2024/03/24 06:43:02;;;;;;;;;;;;;;;5.57;100.00;95695.25;5084282;28;20081;-75
2024/03/24 06:45:30;;;;;;;;;;;;;;;5.27;100.00;95682.72;5085287;28;19950;-75
2024/03/24 06:47:57;;;;;;;;;;;;;;;4.90;100.00;95699.75;5084727;28;19942;-75
2024/03/24 06:50:23;;;;;;;;;;;;;;;4.51;100.00;95711.72;5066788;28;19949;-75
2024/03/24 06:52:52;;;;;;;;;;;;;;;4.25;100.00;95721.84;5067074;28;19943;-75
2024/03/24 06:55:18;;;;;;;;;;;;;;;4.05;100.00;95729.56;5084377;28;19934;-75
2024/03/24 06:57:45;;;;;;;;;;;;;;;3.91;100.00;95734.91;5066294;28;19943;-70
2024/03/24 07:00:11;;;;;;;;;;;;;;;3.80;100.00;95734.47;5049794;28;19947;-70
2024/03/24 07:02:37;;;;;;;;;;;;;;;3.73;100.00;95731.03;5066350;28;20339;-70
2024/03/24 07:05:03;;;;;;;;;;;;;;;3.85;100.00;95742.44;5049761;28;20096;-70
2024/03/24 07:07:30;;;;;;;;;;;;;;;4.43;100.00;95744.66;5050354;28;19947;-70
2024/03/24 07:09:56;;;;;;;;;;;;;;;4.64;100.00;95716.91;5084435;28;19949;-70
2024/03/24 07:12:22;;;;;;;;;;;;;;;4.79;100.00;95733.13;5084106;28;19935;-75
2024/03/24 07:14:48;;;;;;;;;;;;;;;5.09;100.00;95723.13;5066886;28;19942;-81
2024/03/24 07:17:14;;;;;;;;;;;;;;;5.24;100.00;95716.91;5084043;28;20214;-81
2024/03/24 07:19:40;;;;;;;;;;;;;;;5.19;100.00;95698.53;5066066;28;20218;-80
2024/03/24 07:22:07;;;;;;;;;;;;;;;5.07;100.00;95712.13;5066213;28;19934;-81
2024/03/24 07:24:33;;;;;;;;;;;;;;;4.96;100.00;95709.34;5066670;28;19963;-82
2024/03/24 07:26:58;;;;;;;;;;;;;;;5.11;100.00;95729.94;5083920;28;19941;-81
2024/03/24 07:29:24;;;;;;;;;;;;;;;5.42;100.00;95708.50;5049340;28;19950;-80
2024/03/24 07:31:50;;;;;;;;;;;;;;;5.84;100.00;95699.38;5050138;28;19946;-70
2024/03/24 07:34:16;;;;;;;;;;;;;;;6.13;100.00;95697.25;5065950;28;20111;-70
2024/03/24 07:36:42;;;;;;;;;;;;;;;6.45;100.00;95677.25;5066230;28;19990;-70
2024/03/24 07:39:08;;;;;;;;;;;;;;;6.86;100.00;95669.94;5049221;28;19950;-70
2024/03/24 07:41:33;;;;;;;;;;;;;;;7.21;100.00;95646.75;5065808;28;19969;-70
2024/03/24 07:43:59;;;;;;;;;;;;;;;7.44;100.00;95646.13;5049204;28;19961;-70
2024/03/24 07:46:25;;;;;;;;;;;;;;;7.45;100.00;95639.09;5066593;28;19945;-70
2024/03/24 07:48:51;;;;;;;;;;;;;;;7.29;100.00;95630.84;5083692;28;19942;-73
2024/03/24 07:51:17;;;;;;;;;;;;;;;7.30;100.00;95621.97;5083777;28;19947;-79
2024/03/24 07:53:43;;;;;;;;;;;;;;;7.51;100.00;95633.00;5083564;28;19943;-73
2024/03/24 07:56:09;;;;;;;;;;;;;;;7.45;100.00;95608.56;5084195;28;20226;-73
2024/03/24 07:58:35;;;;;;;;;;;;;;;7.56;100.00;95614.91;5084157;28;19942;-73
2024/03/24 08:01:00;;;;;;;;;;;;;;;7.80;100.00;95615.00;5083708;28;19941;-73
2024/03/24 08:03:26;;;;;;;;;;;;;;;8.04;91.93;95554.03;5084082;28;19973;-73
2024/03/24 08:05:52;;;;;;;;;;;;;;;8.14;93.50;95556.88;5086338;28;19931;-73
2024/03/24 08:08:18;;;;;;;;;;;;;;;8.27;93.72;95550.69;5087430;28;19979;-80
2024/03/24 08:10:44;;;;;;;;;;;;;;;8.42;91.21;95546.84;5069713;28;19939;-70
2024/03/24 08:13:10;;;;;;;;;;;;;;;8.45;90.62;95551.63;5087676;28;19944;-70
2024/03/24 08:15:36;;;;;;;;;;;;;;;8.40;83.06;95514.88;5087333;28;19943;-70
2024/03/24 08:18:02;;;;;;;;;;;;;;;8.24;83.50;95529.44;5069472;28;19950;-70
2024/03/24 08:20:28;;;;;;;;;;;;;;;7.60;81.22;95521.31;5069576;28;19981;-71
2024/03/24 08:22:54;;;;;;;;;;;;;;;7.57;87.71;95573.94;5069963;28;19954;-70
2024/03/24 08:25:20;;;;;;;;;;;;;;;7.51;89.20;95576.41;5053533;28;19944;-69
2024/03/24 08:27:46;;;;;;;;;;;;;;;7.65;87.12;95555.38;5069959;28;20002;-70
2024/03/24 08:30:12;;;;;;;;;;;;;;;7.58;92.19;95596.41;5087145;28;20129;-80
2024/03/24 08:32:37;;;;;;;;;;;;;;;7.81;100.00;95700.94;5052500;28;20303;-79
2024/03/24 08:35:04;;;;;;;;;;;;;;;8.21;89.57;95562.00;5087012;28;19943;-80
2024/03/24 08:37:30;;;;;;;;;;;;;;;8.43;82.47;95515.25;5069063;28;20124;-80
2024/03/24 08:39:56;;;;;;;;;;;;;;;8.39;81.78;95508.88;5069817;28;19949;-79
2024/03/24 08:42:22;;;;;;;;;;;;;;;8.56;89.67;95556.06;5086865;28;19969;-79
2024/03/24 08:44:48;;;;;;;;;;;;;;;8.75;82.04;95514.91;5068885;28;20016;-82
2024/03/24 08:47:14;;;;;;;;;;;;;;;8.73;78.98;95478.56;5052306;28;19937;-79
2024/03/24 08:49:39;;;;;;;;;;;;;;;8.75;77.51;95486.16;5087021;28;19936;-79
2024/03/24 08:52:05;;;;;;;;;;;;;;;8.82;83.80;95541.75;5086792;28;19937;-79
2024/03/24 08:54:31;;;;;;;;;;;;;;;8.82;80.94;95525.25;5086644;28;19931;-79
2024/03/24 08:56:57;;;;;;;;;;;;;;;8.73;81.39;95532.63;5086866;28;20005;-78
2024/03/24 08:59:23;;;;;;;;;;;;;;;8.87;82.64;95554.91;5069638;28;19975;-78
2024/03/24 09:01:49;;;;;;;;;;;;;;;8.80;80.77;95530.72;5069513;28;20231;-79
2024/03/24 09:04:15;;;;;;;;;;;;;;;8.51;75.76;95514.13;5086475;28;19955;-70
2024/03/24 09:06:40;;;;;;;;;;;;;;;8.16;78.27;95535.75;5086429;28;19936;-74
2024/03/24 09:09:08;;;;;;;;;;;;;;;8.12;81.04;95547.69;5086634;28;19975;-73
2024/03/24 09:11:33;;;;;;;;;;;;;;;8.26;81.48;95549.06;5087107;28;19946;-74
2024/03/24 09:13:59;;;;;;;;;;;;;;;8.11;82.74;95552.09;5068500;28;19950;-73
2024/03/24 09:16:25;;;;;;;;;;;;;;;7.79;79.95;95535.09;5069147;28;19945;-73
2024/03/24 09:18:51;;;;;;;;;;;;;;;7.56;80.85;95549.69;5086219;28;19932;-73
2024/03/24 09:21:17;;;;;;;;;;;;;;;7.39;82.04;95559.91;5051766;28;19938;-73
2024/03/24 09:23:42;;;;;;;;;;;;;;;7.17;82.84;95567.38;5051589;28;19976;-70
2024/03/24 09:26:08;;;;;;;;;;;;;;;6.94;82.73;95568.03;5068336;28;20223;-70
2024/03/24 09:28:34;;;;;;;;;;;;;;;6.80;86.40;95606.44;5068233;28;19942;-71
2024/03/24 09:31:01;;;;;;;;;;;;;;;6.62;86.04;95596.00;5068818;28;19938;-70
2024/03/24 09:33:27;;;;;;;;;;;;;;;6.48;88.74;95622.13;5086685;28;19938;-69
2024/03/24 09:35:53;;;;;;;;;;;;;;;6.28;86.36;95614.47;5085881;28;19941;-70
2024/03/24 09:38:19;;;;;;;;;;;;;;;6.16;87.89;95628.38;5052068;28;19949;-70
2024/03/24 09:40:47;;;;;;;;;;;;;;;5.97;88.96;95651.69;5085837;28;19934;-71
2024/03/24 09:43:14;;;;;;;;;;;;;;;5.82;91.02;95662.34;5067719;28;19967;-73
2024/03/24 09:45:40;;;;;;;;;;;;;;;5.76;91.97;95668.38;5067831;28;19939;-73
2024/03/24 09:48:09;;;;;;;;;;;;;;;5.77;92.00;95666.56;5051907;28;20120;-73
2024/03/24 09:50:36;;;;;;;;;;;;;;;5.76;92.43;95678.78;5051087;28;19965;-74
2024/03/24 09:53:03;;;;;;;;;;;;;;;5.76;93.19;95673.59;5068316;28;19939;-73
2024/03/24 09:55:28;;;;;;;;;;;;;;;5.78;92.45;95679.38;5067665;28;19933;-73
2024/03/24 09:57:55;;;;;;;;;;;;;;;5.82;92.69;95672.75;5085475;28;19956;-74
2024/03/24 10:00:21;;;;;;;;;;;;;;;5.77;96.28;95703.78;5086008;28;20237;-71
2024/03/24 10:02:48;;;;;;;;;;;;;;;5.80;95.51;95697.41;5067577;28;19943;-74
2024/03/24 10:05:15;;;;;;;;;;;;;;;5.76;93.90;95686.59;5085830;28;19943;-74
2024/03/24 10:07:41;;;;;;;;;;;;;;;5.70;94.54;95683.00;5085379;28;20088;-73
2024/03/24 10:10:07;;;;;;;;;;;;;;;5.66;95.67;95684.41;5085222;28;20017;-74
2024/03/24 10:12:33;;;;;;;;;;;;;;;5.59;97.11;95691.44;5085146;28;19941;-74
2024/03/24 10:15:25;;;;;;;;;;;;;;;5.57;98.61;95706.47;5085881;28;19938;-73
2024/03/24 10:18:04;;;;;;;;;;;;;;;5.58;96.28;95687.25;5085542;28;19935;-73
2024/03/24 10:20:30;;;;;;;;;;;;;;;5.74;99.37;95701.59;5050510;28;19943;-74
2024/03/24 10:22:57;;;;;;;;;;;;;;;5.83;95.53;95676.94;5085335;28;19942;-73
2024/03/24 10:25:24;;;;;;;;;;;;;;;5.92;97.44;95693.13;5085392;28;19935;-74
2024/03/24 10:27:50;;;;;;;;;;;;;;;6.20;96.42;95687.63;5066856;28;20240;-73
2024/03/24 10:30:16;;;;;;;;;;;;;;;6.55;96.40;95676.81;5084818;28;19940;-73
2024/03/24 10:32:42;;;;;;;;;;;;;;;6.79;92.73;95650.97;5084930;28;19937;-73
2024/03/24 10:35:09;;;;;;;;;;;;;;;7.11;94.58;95662.88;5084679;28;19941;-74
2024/03/24 10:37:35;;;;;;;;;;;;;;;7.25;88.70;95618.44;5067096;28;19938;-71
2024/03/24 10:40:12;;;;;;;;;;;;;;;7.33;90.60;95623.38;5050065;28;19935;-71
2024/03/24 10:42:41;;;;;;;;;;;;;;;7.28;87.57;95610.19;5066747;28;19970;-71
2024/03/24 10:45:09;;;;;;;;;;;;;;;7.33;86.68;95602.53;5085242;28;19962;-71
2024/03/24 10:47:36;;;;;;;;;;;;;;;7.34;87.76;95605.91;5049956;28;20005;-71
2024/03/24 10:50:02;;;;;;;;;;;;;;;7.30;88.76;95624.59;5084444;28;19943;-71
2024/03/24 10:52:33;;;;;;;;;;;;;;;7.20;87.62;95608.69;5049886;28;19937;-71
2024/03/24 10:55:00;;;;;;;;;;;;;;;6.97;87.00;95600.66;5050718;28;20226;-70
2024/03/24 10:57:28;;;;;;;;;;;;;;;6.91;88.18;95605.75;5050537;28;20205;-74
2024/03/24 10:59:54;;;;;;;;;;;;;;;6.86;85.42;95583.94;5084400;28;19934;-74
2024/03/24 11:02:21;;;;;;;;;;;;;;;6.83;88.66;95611.22;5084275;28;19940;-74
2024/03/24 11:04:48;;;;;;;;;;;;;;;6.73;88.09;95603.09;5084079;28;20049;-74
2024/03/24 11:07:14;;;;;;;;;;;;;;;6.55;89.18;95606.47;5084135;28;19953;-74
2024/03/24 11:09:40;;;;;;;;;;;;;;;6.46;91.17;95628.56;5084051;28;19952;-74
2024/03/24 11:12:07;;;;;;;;;;;;;;;6.46;91.87;95624.16;5084646;28;19944;-74
2024/03/24 11:14:34;;;;;;;;;;;;;;;6.45;92.56;95624.38;5049603;28;20018;-73
2024/03/24 11:17:01;;;;;;;;;;;;;;;6.38;94.03;95644.44;5049516;28;19945;-73
2024/03/24 11:19:27;;;;;;;;;;;;;;;6.35;93.15;95635.25;5066474;28;19932;-74
2024/03/24 11:21:53;;;;;;;;;;;;;;;6.36;92.70;95620.41;5084763;28;19939;-73
2024/03/24 11:24:23;;;;;;;;;;;;;;;6.39;93.79;95631.22;5049339;28;19974;-73
2024/03/24 11:26:49;;;;;;;;;;;;;;;6.39;91.40;95618.19;5066964;28;19933;-73
2024/03/24 11:29:33;;;;;;;;;;;;;;;6.34;92.44;95618.06;5050261;28;20094;-74
2024/03/24 11:31:59;;;;;;;;;;;;;;;6.33;94.59;95636.47;5083915;28;19936;-78
2024/03/24 11:34:26;;;;;;;;;;;;;;;6.31;94.11;95623.66;5066158;28;19992;-74
2024/03/24 11:36:52;;;;;;;;;;;;;;;6.30;95.69;95625.47;5084351;28;20143;-74
2024/03/24 11:39:19;;;;;;;;;;;;;;;6.34;97.18;95635.47;5083220;28;19945;-74
2024/03/24 11:42:03;;;;;;;;;;;;;;;6.35;98.04;95643.06;5083421;28;19975;-75
2024/03/24 11:44:31;;;;;;;;;;;;;;;6.39;97.93;95635.63;5083991;28;20152;-74
2024/03/24 11:47:01;;;;;;;;;;;;;;;6.45;97.99;95632.19;5083742;28;19947;-74
2024/03/24 11:49:36;;;;;;;;;;;;;;;6.53;98.49;95618.91;5065925;28;20132;-70
2024/03/24 11:52:02;;;;;;;;;;;;;;;6.59;100.00;95644.09;5049836;28;19939;-71
2024/03/24 11:54:29;;;;;;;;;;;;;;;6.64;96.71;95599.19;5066374;28;19939;-71
2024/03/24 11:56:58;;;;;;;;;;;;;;;6.69;97.06;95604.53;5066617;28;19936;-71
2024/03/24 11:59:24;;;;;;;;;;;;;;;6.89;97.10;95604.38;5049780;28;19940;-71
2024/03/24 12:01:50;;;;;;;;;;;;;;;7.13;98.19;95594.91;5065681;28;20026;-71
2024/03/24 12:04:16;;;;;;;;;;;;;;;7.44;95.18;95574.91;5049804;28;19957;-71
2024/03/24 12:06:42;;;;;;;;;;;;;;;7.75;92.87;95560.88;5049057;28;20252;-78
2024/03/24 12:09:11;;;;;;;;;;;;;;;7.86;87.01;95520.16;5083582;28;19958;-73
2024/03/24 12:11:37;;;;;;;;;;;;;;;7.82;87.73;95532.84;5083910;28;19946;-74
2024/03/24 12:14:04;;;;;;;;;;;;;;;7.80;88.94;95534.09;5083527;28;20084;-73
2024/03/24 12:16:30;;;;;;;;;;;;;;;7.72;87.35;95522.16;5083703;28;19981;-73
2024/03/24 12:18:56;;;;;;;;;;;;;;;7.67;87.07;95512.38;5083445;28;19944;-74
2024/03/24 12:21:23;;;;;;;;;;;;;;;7.69;89.20;95523.41;5065999;28;19943;-73
2024/03/24 12:23:49;;;;;;;;;;;;;;;7.75;89.12;95528.72;5083263;28;19955;-73
2024/03/24 12:26:18;;;;;;;;;;;;;;;7.70;87.65;95506.69;5084117;28;19948;-79
2024/03/24 12:28:51;;;;;;;;;;;;;;;7.63;85.99;95510.44;5083854;28;19939;-79
2024/03/24 12:31:16;;;;;;;;;;;;;;;7.55;84.27;95482.84;5065449;28;19938;-79
2024/03/24 12:33:42;;;;;;;;;;;;;;;7.43;84.19;95495.03;5065422;28;20244;-79
2024/03/24 12:36:08;;;;;;;;;;;;;;;7.65;85.44;95492.75;5083365;28;19980;-79
2024/03/24 12:38:36;;;;;;;;;;;;;;;7.78;82.54;95458.63;5084012;28;19930;-79
2024/03/24 12:41:02;;;;;;;;;;;;;;;7.91;81.93;95470.66;5083058;28;19938;-78
2024/03/24 12:43:28;;;;;;;;;;;;;;;8.06;81.54;95478.88;5065681;28;19964;-79
2024/03/24 12:45:55;;;;;;;;;;;;;;;8.22;76.85;95460.94;5066126;28;20226;-73